sensor_id;sensor_type;location;lat;lon;timestamp;P1;durP1;ratioP1;P2;durP2;ratioP2
42110;SDS011;27766;52.174;5.456;2023-03-01T00:01:19;14.68;;;10.80;;
42110;SDS011;27766;52.174;5.456;2023-03-01T00:03:47;19.83;;;11.70;;
42110;SDS011;27766;52.174;5.456;2023-03-01T00:06:15;16.40;;;10.20;;
42110;SDS011;27766;52.174;5.456;2023-03-01T00:08:43;14.85;;;10.90;;
42110;SDS011;27766;52.174;5.456;2023-03-01T00:11:19;23.15;;;10.50;;
42110;SDS011;27766;52.174;5.456;2023-03-01T00:13:52;17.60;;;10.98;;
42110;SDS011;27766;52.174;5.456;2023-03-01T00:16:24;26.10;;;12.10;;
42110;SDS011;27766;52.174;5.456;2023-03-01T00:18:55;16.75;;;12.05;;
42110;SDS011;27766;52.174;5.456;2023-03-01T00:21:26;18.00;;;12.38;;
42110;SDS011;27766;52.174;5.456;2023-03-01T00:23:54;20.35;;;12.65;;
42110;SDS011;27766;52.174;5.456;2023-03-01T00:26:22;17.55;;;11.98;;
42110;SDS011;27766;52.174;5.456;2023-03-01T00:28:50;17.13;;;11.95;;
42110;SDS011;27766;52.174;5.456;2023-03-01T00:31:19;13.13;;;10.65;;
42110;SDS011;27766;52.174;5.456;2023-03-01T00:33:53;17.73;;;10.70;;
42110;SDS011;27766;52.174;5.456;2023-03-01T00:36:25;23.02;;;11.30;;
42110;SDS011;27766;52.174;5.456;2023-03-01T00:38:55;19.35;;;11.30;;
42110;SDS011;27766;52.174;5.456;2023-03-01T00:41:23;23.10;;;11.77;;
42110;SDS011;27766;52.174;5.456;2023-03-01T00:43:55;21.02;;;12.65;;
42110;SDS011;27766;52.174;5.456;2023-03-01T00:46:24;14.25;;;10.85;;
42110;SDS011;27766;52.174;5.456;2023-03-01T00:48:56;15.57;;;11.15;;
42110;SDS011;27766;52.174;5.456;2023-03-01T00:51:24;14.85;;;10.85;;
42110;SDS011;27766;52.174;5.456;2023-03-01T00:53:55;20.05;;;11.40;;
42110;SDS011;27766;52.174;5.456;2023-03-01T00:56:24;12.82;;;9.80;;
42110;SDS011;27766;52.174;5.456;2023-03-01T00:58:51;16.70;;;10.57;;
42110;SDS011;27766;52.174;5.456;2023-03-01T01:01:20;14.43;;;10.20;;
42110;SDS011;27766;52.174;5.456;2023-03-01T01:03:50;16.25;;;10.35;;
42110;SDS011;27766;52.174;5.456;2023-03-01T01:06:23;16.80;;;10.55;;
42110;SDS011;27766;52.174;5.456;2023-03-01T01:08:55;16.02;;;10.38;;
42110;SDS011;27766;52.174;5.456;2023-03-01T01:11:24;14.48;;;10.98;;
42110;SDS011;27766;52.174;5.456;2023-03-01T01:13:53;17.77;;;10.57;;
42110;SDS011;27766;52.174;5.456;2023-03-01T01:16:21;17.10;;;10.93;;
42110;SDS011;27766;52.174;5.456;2023-03-01T01:18:50;17.45;;;10.93;;
42110;SDS011;27766;52.174;5.456;2023-03-01T01:21:19;18.13;;;12.10;;
42110;SDS011;27766;52.174;5.456;2023-03-01T01:23:47;16.33;;;10.68;;
42110;SDS011;27766;52.174;5.456;2023-03-01T01:26:16;19.98;;;12.05;;
42110;SDS011;27766;52.174;5.456;2023-03-01T01:28:51;17.02;;;11.43;;
42110;SDS011;27766;52.174;5.456;2023-03-01T01:31:19;19.13;;;12.38;;
42110;SDS011;27766;52.174;5.456;2023-03-01T01:33:50;16.08;;;10.75;;
42110;SDS011;27766;52.174;5.456;2023-03-01T01:36:18;16.05;;;11.73;;
42110;SDS011;27766;52.174;5.456;2023-03-01T01:38:45;17.60;;;11.90;;
42110;SDS011;27766;52.174;5.456;2023-03-01T01:41:12;15.73;;;10.73;;
42110;SDS011;27766;52.174;5.456;2023-03-01T01:43:44;14.48;;;10.90;;
42110;SDS011;27766;52.174;5.456;2023-03-01T01:48:46;13.37;;;11.13;;
42110;SDS011;27766;52.174;5.456;2023-03-01T01:51:20;16.45;;;11.73;;
42110;SDS011;27766;52.174;5.456;2023-03-01T01:53:53;17.42;;;11.85;;
42110;SDS011;27766;52.174;5.456;2023-03-01T01:56:25;15.02;;;11.73;;
42110;SDS011;27766;52.174;5.456;2023-03-01T01:58:54;17.80;;;12.48;;
42110;SDS011;27766;52.174;5.456;2023-03-01T02:01:23;16.70;;;12.57;;
42110;SDS011;27766;52.174;5.456;2023-03-01T02:03:50;16.30;;;11.48;;
42110;SDS011;27766;52.174;5.456;2023-03-01T02:09:11;17.42;;;11.70;;
42110;SDS011;27766;52.174;5.456;2023-03-01T02:11:41;18.55;;;13.15;;
42110;SDS011;27766;52.174;5.456;2023-03-01T02:14:09;16.00;;;12.85;;
42110;SDS011;27766;52.174;5.456;2023-03-01T02:16:37;19.90;;;12.80;;
42110;SDS011;27766;52.174;5.456;2023-03-01T02:19:04;18.88;;;12.57;;
42110;SDS011;27766;52.174;5.456;2023-03-01T02:24:51;15.73;;;11.63;;
42110;SDS011;27766;52.174;5.456;2023-03-01T02:27:35;18.85;;;13.30;;
42110;SDS011;27766;52.174;5.456;2023-03-01T02:30:07;18.10;;;12.90;;
42110;SDS011;27766;52.174;5.456;2023-03-01T02:32:35;21.35;;;13.13;;
42110;SDS011;27766;52.174;5.456;2023-03-01T02:35:02;29.95;;;14.82;;
42110;SDS011;27766;52.174;5.456;2023-03-01T02:37:33;18.33;;;13.73;;
42110;SDS011;27766;52.174;5.456;2023-03-01T02:40:04;16.40;;;12.50;;
42110;SDS011;27766;52.174;5.456;2023-03-01T02:42:41;21.77;;;13.85;;
42110;SDS011;27766;52.174;5.456;2023-03-01T02:45:15;21.13;;;13.00;;
42110;SDS011;27766;52.174;5.456;2023-03-01T02:47:42;29.02;;;14.18;;
42110;SDS011;27766;52.174;5.456;2023-03-01T02:50:22;22.42;;;13.07;;
42110;SDS011;27766;52.174;5.456;2023-03-01T02:53:08;22.40;;;13.32;;
42110;SDS011;27766;52.174;5.456;2023-03-01T02:55:37;28.17;;;14.30;;
42110;SDS011;27766;52.174;5.456;2023-03-01T02:58:05;21.52;;;13.68;;
42110;SDS011;27766;52.174;5.456;2023-03-01T03:00:42;17.23;;;12.98;;
42110;SDS011;27766;52.174;5.456;2023-03-01T03:03:13;18.58;;;12.95;;
42110;SDS011;27766;52.174;5.456;2023-03-01T03:05:43;23.55;;;13.98;;
42110;SDS011;27766;52.174;5.456;2023-03-01T03:08:11;20.17;;;13.70;;
42110;SDS011;27766;52.174;5.456;2023-03-01T03:10:39;18.40;;;13.25;;
42110;SDS011;27766;52.174;5.456;2023-03-01T03:13:08;25.38;;;14.52;;
42110;SDS011;27766;52.174;5.456;2023-03-01T03:15:38;16.52;;;13.00;;
42110;SDS011;27766;52.174;5.456;2023-03-01T03:18:07;19.30;;;13.52;;
42110;SDS011;27766;52.174;5.456;2023-03-01T03:20:36;16.83;;;13.20;;
42110;SDS011;27766;52.174;5.456;2023-03-01T03:23:06;19.38;;;13.30;;
42110;SDS011;27766;52.174;5.456;2023-03-01T03:25:33;31.23;;;15.32;;
42110;SDS011;27766;52.174;5.456;2023-03-01T03:28:04;26.45;;;14.43;;
42110;SDS011;27766;52.174;5.456;2023-03-01T03:30:37;21.77;;;13.25;;
42110;SDS011;27766;52.174;5.456;2023-03-01T03:33:09;19.15;;;14.10;;
42110;SDS011;27766;52.174;5.456;2023-03-01T03:35:40;20.00;;;13.18;;
42110;SDS011;27766;52.174;5.456;2023-03-01T03:38:10;18.23;;;13.25;;
42110;SDS011;27766;52.174;5.456;2023-03-01T03:40:45;20.23;;;13.85;;
42110;SDS011;27766;52.174;5.456;2023-03-01T03:43:15;20.85;;;14.40;;
42110;SDS011;27766;52.174;5.456;2023-03-01T03:45:44;16.13;;;12.77;;
42110;SDS011;27766;52.174;5.456;2023-03-01T03:48:13;19.77;;;13.63;;
42110;SDS011;27766;52.174;5.456;2023-03-01T03:50:40;20.02;;;12.32;;
42110;SDS011;27766;52.174;5.456;2023-03-01T03:53:09;18.48;;;13.82;;
42110;SDS011;27766;52.174;5.456;2023-03-01T03:55:38;17.25;;;14.07;;
42110;SDS011;27766;52.174;5.456;2023-03-01T03:58:08;18.00;;;13.00;;
42110;SDS011;27766;52.174;5.456;2023-03-01T04:00:40;27.25;;;12.48;;
42110;SDS011;27766;52.174;5.456;2023-03-01T04:03:09;25.90;;;14.57;;
42110;SDS011;27766;52.174;5.456;2023-03-01T04:05:38;19.23;;;12.88;;
42110;SDS011;27766;52.174;5.456;2023-03-01T04:08:06;21.38;;;13.05;;
42110;SDS011;27766;52.174;5.456;2023-03-01T04:10:35;21.75;;;13.57;;
42110;SDS011;27766;52.174;5.456;2023-03-01T04:13:04;20.10;;;13.52;;
42110;SDS011;27766;52.174;5.456;2023-03-01T04:15:33;17.63;;;13.10;;
42110;SDS011;27766;52.174;5.456;2023-03-01T04:18:01;29.38;;;13.57;;
42110;SDS011;27766;52.174;5.456;2023-03-01T04:20:29;19.98;;;12.75;;
42110;SDS011;27766;52.174;5.456;2023-03-01T04:23:10;24.05;;;14.32;;
42110;SDS011;27766;52.174;5.456;2023-03-01T04:25:45;19.70;;;14.43;;
42110;SDS011;27766;52.174;5.456;2023-03-01T04:28:22;23.85;;;14.15;;
42110;SDS011;27766;52.174;5.456;2023-03-01T04:30:55;20.00;;;13.30;;
42110;SDS011;27766;52.174;5.456;2023-03-01T04:33:24;18.30;;;14.30;;
42110;SDS011;27766;52.174;5.456;2023-03-01T04:35:53;20.98;;;14.18;;
42110;SDS011;27766;52.174;5.456;2023-03-01T04:38:20;17.98;;;13.02;;
42110;SDS011;27766;52.174;5.456;2023-03-01T04:40:48;17.58;;;14.00;;
42110;SDS011;27766;52.174;5.456;2023-03-01T04:43:15;22.23;;;13.75;;
42110;SDS011;27766;52.174;5.456;2023-03-01T04:45:42;19.00;;;13.75;;
42110;SDS011;27766;52.174;5.456;2023-03-01T04:48:09;21.98;;;13.48;;
42110;SDS011;27766;52.174;5.456;2023-03-01T04:50:36;20.08;;;13.05;;
42110;SDS011;27766;52.174;5.456;2023-03-01T04:53:03;20.88;;;11.63;;
42110;SDS011;27766;52.174;5.456;2023-03-01T04:55:30;21.20;;;14.02;;
42110;SDS011;27766;52.174;5.456;2023-03-01T04:57:58;20.67;;;13.70;;
42110;SDS011;27766;52.174;5.456;2023-03-01T05:00:25;21.30;;;14.38;;
42110;SDS011;27766;52.174;5.456;2023-03-01T05:02:54;25.80;;;16.52;;
42110;SDS011;27766;52.174;5.456;2023-03-01T05:05:26;34.08;;;17.02;;
42110;SDS011;27766;52.174;5.456;2023-03-01T05:07:56;22.33;;;14.45;;
42110;SDS011;27766;52.174;5.456;2023-03-01T05:10:26;25.55;;;15.48;;
42110;SDS011;27766;52.174;5.456;2023-03-01T05:12:57;23.20;;;15.48;;
42110;SDS011;27766;52.174;5.456;2023-03-01T05:15:25;18.90;;;13.55;;
42110;SDS011;27766;52.174;5.456;2023-03-01T05:17:55;20.23;;;13.52;;
42110;SDS011;27766;52.174;5.456;2023-03-01T05:20:26;27.77;;;14.70;;
42110;SDS011;27766;52.174;5.456;2023-03-01T05:22:56;21.88;;;13.75;;
42110;SDS011;27766;52.174;5.456;2023-03-01T05:25:25;19.83;;;13.98;;
42110;SDS011;27766;52.174;5.456;2023-03-01T05:27:53;20.92;;;14.73;;
42110;SDS011;27766;52.174;5.456;2023-03-01T05:30:21;20.38;;;13.68;;
42110;SDS011;27766;52.174;5.456;2023-03-01T05:32:49;29.90;;;15.20;;
42110;SDS011;27766;52.174;5.456;2023-03-01T05:35:23;23.73;;;14.48;;
42110;SDS011;27766;52.174;5.456;2023-03-01T05:37:50;21.55;;;14.38;;
42110;SDS011;27766;52.174;5.456;2023-03-01T05:40:19;25.60;;;15.13;;
42110;SDS011;27766;52.174;5.456;2023-03-01T05:42:52;26.27;;;14.13;;
42110;SDS011;27766;52.174;5.456;2023-03-01T05:45:24;24.23;;;14.90;;
42110;SDS011;27766;52.174;5.456;2023-03-01T05:47:53;25.25;;;15.30;;
42110;SDS011;27766;52.174;5.456;2023-03-01T05:50:25;24.08;;;15.27;;
42110;SDS011;27766;52.174;5.456;2023-03-01T05:53:00;24.70;;;15.27;;
42110;SDS011;27766;52.174;5.456;2023-03-01T05:55:29;20.85;;;14.55;;
42110;SDS011;27766;52.174;5.456;2023-03-01T05:57:58;24.38;;;14.35;;
42110;SDS011;27766;52.174;5.456;2023-03-01T06:00:27;19.95;;;14.32;;
42110;SDS011;27766;52.174;5.456;2023-03-01T06:02:56;21.08;;;14.52;;
42110;SDS011;27766;52.174;5.456;2023-03-01T06:05:25;22.50;;;15.00;;
42110;SDS011;27766;52.174;5.456;2023-03-01T06:07:53;19.05;;;14.95;;
42110;SDS011;27766;52.174;5.456;2023-03-01T06:10:21;22.95;;;16.20;;
42110;SDS011;27766;52.174;5.456;2023-03-01T06:12:54;25.20;;;16.17;;
42110;SDS011;27766;52.174;5.456;2023-03-01T06:15:22;20.17;;;15.40;;
42110;SDS011;27766;52.174;5.456;2023-03-01T06:17:51;25.90;;;17.05;;
42110;SDS011;27766;52.174;5.456;2023-03-01T06:20:24;26.83;;;16.80;;
42110;SDS011;27766;52.174;5.456;2023-03-01T06:22:54;25.27;;;17.23;;
42110;SDS011;27766;52.174;5.456;2023-03-01T06:25:24;22.33;;;16.35;;
42110;SDS011;27766;52.174;5.456;2023-03-01T06:27:54;27.63;;;17.98;;
42110;SDS011;27766;52.174;5.456;2023-03-01T06:30:22;27.27;;;18.92;;
42110;SDS011;27766;52.174;5.456;2023-03-01T06:32:51;24.02;;;17.75;;
42110;SDS011;27766;52.174;5.456;2023-03-01T06:35:19;27.90;;;17.60;;
42110;SDS011;27766;52.174;5.456;2023-03-01T06:37:47;25.92;;;18.05;;
42110;SDS011;27766;52.174;5.456;2023-03-01T06:40:14;24.13;;;18.13;;
42110;SDS011;27766;52.174;5.456;2023-03-01T06:42:42;32.88;;;19.52;;
42110;SDS011;27766;52.174;5.456;2023-03-01T06:45:10;35.88;;;21.67;;
42110;SDS011;27766;52.174;5.456;2023-03-01T06:47:38;31.38;;;19.58;;
42110;SDS011;27766;52.174;5.456;2023-03-01T06:50:05;29.33;;;19.70;;
42110;SDS011;27766;52.174;5.456;2023-03-01T06:52:33;32.17;;;19.88;;
42110;SDS011;27766;52.174;5.456;2023-03-01T06:55:00;32.90;;;20.80;;
42110;SDS011;27766;52.174;5.456;2023-03-01T06:57:27;30.75;;;20.05;;
42110;SDS011;27766;52.174;5.456;2023-03-01T06:59:55;28.55;;;17.90;;
42110;SDS011;27766;52.174;5.456;2023-03-01T07:02:22;27.92;;;18.73;;
42110;SDS011;27766;52.174;5.456;2023-03-01T07:04:50;24.25;;;16.55;;
42110;SDS011;27766;52.174;5.456;2023-03-01T07:07:18;31.65;;;19.27;;
42110;SDS011;27766;52.174;5.456;2023-03-01T07:09:46;29.75;;;17.73;;
42110;SDS011;27766;52.174;5.456;2023-03-01T07:12:13;27.67;;;17.90;;
42110;SDS011;27766;52.174;5.456;2023-03-01T07:14:40;29.65;;;19.05;;
42110;SDS011;27766;52.174;5.456;2023-03-01T07:17:07;25.52;;;18.20;;
42110;SDS011;27766;52.174;5.456;2023-03-01T07:19:34;33.97;;;17.00;;
42110;SDS011;27766;52.174;5.456;2023-03-01T07:22:02;29.02;;;18.88;;
42110;SDS011;27766;52.174;5.456;2023-03-01T07:24:30;36.28;;;19.33;;
42110;SDS011;27766;52.174;5.456;2023-03-01T07:26:58;25.10;;;17.35;;
42110;SDS011;27766;52.174;5.456;2023-03-01T07:29:25;28.75;;;17.17;;
42110;SDS011;27766;52.174;5.456;2023-03-01T07:31:53;26.15;;;17.20;;
42110;SDS011;27766;52.174;5.456;2023-03-01T07:34:20;24.85;;;17.00;;
42110;SDS011;27766;52.174;5.456;2023-03-01T07:36:47;25.10;;;16.23;;
42110;SDS011;27766;52.174;5.456;2023-03-01T07:39:14;22.33;;;15.85;;
42110;SDS011;27766;52.174;5.456;2023-03-01T07:41:44;24.73;;;16.42;;
42110;SDS011;27766;52.174;5.456;2023-03-01T07:44:11;22.25;;;16.42;;
42110;SDS011;27766;52.174;5.456;2023-03-01T07:46:38;25.33;;;16.38;;
42110;SDS011;27766;52.174;5.456;2023-03-01T07:49:05;26.52;;;16.08;;
42110;SDS011;27766;52.174;5.456;2023-03-01T07:51:32;34.10;;;15.95;;
42110;SDS011;27766;52.174;5.456;2023-03-01T07:53:59;31.15;;;17.90;;
42110;SDS011;27766;52.174;5.456;2023-03-01T07:56:27;22.73;;;15.15;;
42110;SDS011;27766;52.174;5.456;2023-03-01T07:58:54;27.70;;;16.25;;
42110;SDS011;27766;52.174;5.456;2023-03-01T08:01:22;26.58;;;15.75;;
42110;SDS011;27766;52.174;5.456;2023-03-01T08:03:50;19.42;;;14.65;;
42110;SDS011;27766;52.174;5.456;2023-03-01T08:06:18;25.73;;;15.93;;
42110;SDS011;27766;52.174;5.456;2023-03-01T08:08:45;21.67;;;16.05;;
42110;SDS011;27766;52.174;5.456;2023-03-01T08:11:13;29.52;;;15.45;;
42110;SDS011;27766;52.174;5.456;2023-03-01T08:13:41;23.52;;;14.68;;
42110;SDS011;27766;52.174;5.456;2023-03-01T08:16:11;25.38;;;15.00;;
42110;SDS011;27766;52.174;5.456;2023-03-01T08:18:39;23.88;;;14.20;;
42110;SDS011;27766;52.174;5.456;2023-03-01T08:21:08;25.98;;;15.30;;
42110;SDS011;27766;52.174;5.456;2023-03-01T08:23:38;26.67;;;13.35;;
42110;SDS011;27766;52.174;5.456;2023-03-01T08:28:34;14.90;;;11.88;;
42110;SDS011;27766;52.174;5.456;2023-03-01T08:31:02;18.52;;;11.93;;
42110;SDS011;27766;52.174;5.456;2023-03-01T08:33:29;16.05;;;11.95;;
42110;SDS011;27766;52.174;5.456;2023-03-01T08:36:04;21.55;;;11.35;;
42110;SDS011;27766;52.174;5.456;2023-03-01T08:38:34;13.35;;;10.93;;
42110;SDS011;27766;52.174;5.456;2023-03-01T08:41:02;14.18;;;9.75;;
42110;SDS011;27766;52.174;5.456;2023-03-01T08:43:30;16.88;;;10.45;;
42110;SDS011;27766;52.174;5.456;2023-03-01T08:45:57;16.40;;;9.52;;
42110;SDS011;27766;52.174;5.456;2023-03-01T08:48:25;13.70;;;8.85;;
42110;SDS011;27766;52.174;5.456;2023-03-01T08:50:54;13.85;;;8.95;;
42110;SDS011;27766;52.174;5.456;2023-03-01T08:53:21;13.38;;;7.82;;
42110;SDS011;27766;52.174;5.456;2023-03-01T08:55:48;11.80;;;8.55;;
42110;SDS011;27766;52.174;5.456;2023-03-01T08:58:16;14.88;;;8.93;;
42110;SDS011;27766;52.174;5.456;2023-03-01T09:00:43;10.90;;;8.07;;
42110;SDS011;27766;52.174;5.456;2023-03-01T09:03:11;15.02;;;7.97;;
42110;SDS011;27766;52.174;5.456;2023-03-01T09:05:38;11.18;;;7.95;;
42110;SDS011;27766;52.174;5.456;2023-03-01T09:08:05;11.20;;;7.95;;
42110;SDS011;27766;52.174;5.456;2023-03-01T09:10:32;13.77;;;7.90;;
42110;SDS011;27766;52.174;5.456;2023-03-01T09:12:59;9.85;;;6.93;;
42110;SDS011;27766;52.174;5.456;2023-03-01T09:15:27;7.65;;;5.90;;
42110;SDS011;27766;52.174;5.456;2023-03-01T09:17:54;10.43;;;6.40;;
42110;SDS011;27766;52.174;5.456;2023-03-01T09:20:21;8.73;;;5.90;;
42110;SDS011;27766;52.174;5.456;2023-03-01T09:22:49;9.35;;;6.25;;
42110;SDS011;27766;52.174;5.456;2023-03-01T09:25:16;7.45;;;5.85;;
42110;SDS011;27766;52.174;5.456;2023-03-01T09:27:43;7.72;;;4.97;;
42110;SDS011;27766;52.174;5.456;2023-03-01T09:30:10;7.63;;;5.20;;
42110;SDS011;27766;52.174;5.456;2023-03-01T09:32:38;6.03;;;4.85;;
42110;SDS011;27766;52.174;5.456;2023-03-01T09:35:09;7.82;;;4.30;;
42110;SDS011;27766;52.174;5.456;2023-03-01T09:37:36;6.47;;;5.07;;
42110;SDS011;27766;52.174;5.456;2023-03-01T09:40:05;7.78;;;4.63;;
42110;SDS011;27766;52.174;5.456;2023-03-01T09:42:34;7.40;;;4.32;;
42110;SDS011;27766;52.174;5.456;2023-03-01T09:45:25;5.35;;;3.97;;
42110;SDS011;27766;52.174;5.456;2023-03-01T09:48:00;7.03;;;3.50;;
42110;SDS011;27766;52.174;5.456;2023-03-01T09:50:32;5.65;;;3.03;;
42110;SDS011;27766;52.174;5.456;2023-03-01T09:53:03;7.80;;;3.88;;
42110;SDS011;27766;52.174;5.456;2023-03-01T09:58:31;3.97;;;2.75;;
42110;SDS011;27766;52.174;5.456;2023-03-01T10:09:27;3.97;;;2.67;;
42110;SDS011;27766;52.174;5.456;2023-03-01T10:11:58;6.90;;;3.00;;
42110;SDS011;27766;52.174;5.456;2023-03-01T10:17:06;5.93;;;3.03;;
42110;SDS011;27766;52.174;5.456;2023-03-01T10:19:40;4.65;;;2.80;;
42110;SDS011;27766;52.174;5.456;2023-03-01T10:22:19;5.70;;;3.15;;
42110;SDS011;27766;52.174;5.456;2023-03-01T10:24:50;4.57;;;2.95;;
42110;SDS011;27766;52.174;5.456;2023-03-01T10:27:23;4.53;;;3.28;;
42110;SDS011;27766;52.174;5.456;2023-03-01T10:32:51;4.63;;;2.78;;
42110;SDS011;27766;52.174;5.456;2023-03-01T10:35:22;6.45;;;2.65;;
42110;SDS011;27766;52.174;5.456;2023-03-01T10:40:32;8.63;;;3.20;;
42110;SDS011;27766;52.174;5.456;2023-03-01T10:43:04;5.95;;;2.88;;
42110;SDS011;27766;52.174;5.456;2023-03-01T10:45:34;4.68;;;2.50;;
42110;SDS011;27766;52.174;5.456;2023-03-01T10:50:30;3.88;;;2.25;;
42110;SDS011;27766;52.174;5.456;2023-03-01T10:52:59;7.82;;;2.38;;
42110;SDS011;27766;52.174;5.456;2023-03-01T10:55:34;3.72;;;2.33;;
42110;SDS011;27766;52.174;5.456;2023-03-01T11:00:45;3.42;;;2.22;;
42110;SDS011;27766;52.174;5.456;2023-03-01T11:03:31;3.50;;;2.28;;
42110;SDS011;27766;52.174;5.456;2023-03-01T11:06:20;3.72;;;2.80;;
42110;SDS011;27766;52.174;5.456;2023-03-01T11:08:49;4.53;;;2.30;;
42110;SDS011;27766;52.174;5.456;2023-03-01T11:11:25;3.05;;;2.10;;
42110;SDS011;27766;52.174;5.456;2023-03-01T11:14:00;4.00;;;2.92;;
42110;SDS011;27766;52.174;5.456;2023-03-01T11:16:59;4.40;;;2.65;;
42110;SDS011;27766;52.174;5.456;2023-03-01T11:19:29;2.03;;;1.50;;
42110;SDS011;27766;52.174;5.456;2023-03-01T11:22:01;3.05;;;2.22;;
42110;SDS011;27766;52.174;5.456;2023-03-01T11:24:41;5.90;;;2.15;;
42110;SDS011;27766;52.174;5.456;2023-03-01T11:30:13;4.82;;;2.35;;
42110;SDS011;27766;52.174;5.456;2023-03-01T11:32:45;5.82;;;2.40;;
42110;SDS011;27766;52.174;5.456;2023-03-01T11:35:19;3.40;;;2.05;;
42110;SDS011;27766;52.174;5.456;2023-03-01T11:38:02;4.03;;;1.90;;
42110;SDS011;27766;52.174;5.456;2023-03-01T11:43:28;3.78;;;2.25;;
42110;SDS011;27766;52.174;5.456;2023-03-01T12:03:16;2.75;;;2.20;;
42110;SDS011;27766;52.174;5.456;2023-03-01T12:05:50;4.22;;;2.92;;
42110;SDS011;27766;52.174;5.456;2023-03-01T12:11:23;4.45;;;2.92;;
42110;SDS011;27766;52.174;5.456;2023-03-01T12:22:30;3.30;;;2.45;;
42110;SDS011;27766;52.174;5.456;2023-03-01T12:27:51;4.53;;;3.08;;
42110;SDS011;27766;52.174;5.456;2023-03-01T12:32:52;4.25;;;2.40;;
42110;SDS011;27766;52.174;5.456;2023-03-01T12:38:22;5.43;;;3.10;;
42110;SDS011;27766;52.174;5.456;2023-03-01T12:41:05;3.90;;;2.97;;
42110;SDS011;27766;52.174;5.456;2023-03-01T12:46:38;3.42;;;2.42;;
42110;SDS011;27766;52.174;5.456;2023-03-01T12:49:10;6.28;;;3.28;;
42110;SDS011;27766;52.174;5.456;2023-03-01T12:51:50;4.43;;;2.63;;
42110;SDS011;27766;52.174;5.456;2023-03-01T12:54:26;4.13;;;2.65;;
42110;SDS011;27766;52.174;5.456;2023-03-01T12:56:58;4.38;;;2.47;;
42110;SDS011;27766;52.174;5.456;2023-03-01T13:02:45;6.57;;;2.65;;
42110;SDS011;27766;52.174;5.456;2023-03-01T13:11:36;5.15;;;2.80;;
42110;SDS011;27766;52.174;5.456;2023-03-01T13:14:34;3.67;;;2.38;;
42110;SDS011;27766;52.174;5.456;2023-03-01T13:16:50;4.70;;;2.70;;
42110;SDS011;27766;52.174;5.456;2023-03-01T13:19:24;5.20;;;2.80;;
42110;SDS011;27766;52.174;5.456;2023-03-01T13:21:59;4.95;;;2.85;;
42110;SDS011;27766;52.174;5.456;2023-03-01T13:24:33;4.80;;;3.13;;
42110;SDS011;27766;52.174;5.456;2023-03-01T13:29:53;4.63;;;3.03;;
42110;SDS011;27766;52.174;5.456;2023-03-01T13:32:33;3.13;;;2.40;;
42110;SDS011;27766;52.174;5.456;2023-03-01T13:37:46;4.80;;;2.67;;
42110;SDS011;27766;52.174;5.456;2023-03-01T13:42:45;4.65;;;2.80;;
42110;SDS011;27766;52.174;5.456;2023-03-01T13:45:38;4.35;;;2.65;;
42110;SDS011;27766;52.174;5.456;2023-03-01T13:50:38;5.43;;;3.15;;
42110;SDS011;27766;52.174;5.456;2023-03-01T13:53:16;5.32;;;2.90;;
42110;SDS011;27766;52.174;5.456;2023-03-01T13:55:47;8.18;;;2.88;;
42110;SDS011;27766;52.174;5.456;2023-03-01T13:58:21;4.30;;;3.20;;
42110;SDS011;27766;52.174;5.456;2023-03-01T14:00:55;4.20;;;2.83;;
42110;SDS011;27766;52.174;5.456;2023-03-01T14:03:26;4.45;;;2.78;;
42110;SDS011;27766;52.174;5.456;2023-03-01T14:08:47;4.63;;;3.30;;
42110;SDS011;27766;52.174;5.456;2023-03-01T14:11:23;8.02;;;3.28;;
42110;SDS011;27766;52.174;5.456;2023-03-01T14:19:18;4.55;;;2.63;;
42110;SDS011;27766;52.174;5.456;2023-03-01T14:22:17;6.43;;;3.20;;
42110;SDS011;27766;52.174;5.456;2023-03-01T14:24:50;3.13;;;2.30;;
42110;SDS011;27766;52.174;5.456;2023-03-01T14:27:19;4.65;;;2.53;;
42110;SDS011;27766;52.174;5.456;2023-03-01T14:29:58;10.02;;;2.42;;
42110;SDS011;27766;52.174;5.456;2023-03-01T14:32:28;4.68;;;3.03;;
42110;SDS011;27766;52.174;5.456;2023-03-01T14:34:58;4.18;;;2.97;;
42110;SDS011;27766;52.174;5.456;2023-03-01T14:37:30;4.07;;;2.67;;
42110;SDS011;27766;52.174;5.456;2023-03-01T14:39:59;4.05;;;3.03;;
42110;SDS011;27766;52.174;5.456;2023-03-01T14:42:30;5.50;;;2.80;;
42110;SDS011;27766;52.174;5.456;2023-03-01T14:45:02;3.67;;;2.47;;
42110;SDS011;27766;52.174;5.456;2023-03-01T14:47:32;5.03;;;2.80;;
42110;SDS011;27766;52.174;5.456;2023-03-01T14:50:02;3.00;;;2.60;;
42110;SDS011;27766;52.174;5.456;2023-03-01T14:52:35;6.22;;;2.63;;
42110;SDS011;27766;52.174;5.456;2023-03-01T14:55:09;4.18;;;2.40;;
42110;SDS011;27766;52.174;5.456;2023-03-01T14:57:44;4.05;;;2.90;;
42110;SDS011;27766;52.174;5.456;2023-03-01T15:00:16;4.35;;;2.75;;
42110;SDS011;27766;52.174;5.456;2023-03-01T15:02:50;4.45;;;2.88;;
42110;SDS011;27766;52.174;5.456;2023-03-01T15:05:32;6.20;;;3.08;;
42110;SDS011;27766;52.174;5.456;2023-03-01T15:08:00;4.03;;;2.85;;
42110;SDS011;27766;52.174;5.456;2023-03-01T15:10:31;13.63;;;3.50;;
42110;SDS011;27766;52.174;5.456;2023-03-01T15:13:12;4.60;;;3.00;;
42110;SDS011;27766;52.174;5.456;2023-03-01T15:18:45;7.72;;;3.40;;
42110;SDS011;27766;52.174;5.456;2023-03-01T15:21:29;5.05;;;3.50;;
42110;SDS011;27766;52.174;5.456;2023-03-01T15:24:02;6.13;;;3.58;;
42110;SDS011;27766;52.174;5.456;2023-03-01T15:26:53;4.40;;;2.78;;
42110;SDS011;27766;52.174;5.456;2023-03-01T15:29:29;4.90;;;3.08;;
42110;SDS011;27766;52.174;5.456;2023-03-01T15:32:01;5.13;;;3.00;;
42110;SDS011;27766;52.174;5.456;2023-03-01T15:34:34;4.47;;;2.90;;
42110;SDS011;27766;52.174;5.456;2023-03-01T15:37:15;4.65;;;3.03;;
42110;SDS011;27766;52.174;5.456;2023-03-01T15:40:21;3.72;;;2.83;;
42110;SDS011;27766;52.174;5.456;2023-03-01T15:43:02;6.40;;;4.15;;
42110;SDS011;27766;52.174;5.456;2023-03-01T15:45:33;5.18;;;3.55;;
42110;SDS011;27766;52.174;5.456;2023-03-01T15:48:01;5.50;;;3.33;;
42110;SDS011;27766;52.174;5.456;2023-03-01T15:50:31;5.53;;;2.83;;
42110;SDS011;27766;52.174;5.456;2023-03-01T15:53:01;8.00;;;3.20;;
42110;SDS011;27766;52.174;5.456;2023-03-01T15:55:33;6.55;;;3.38;;
42110;SDS011;27766;52.174;5.456;2023-03-01T15:58:01;4.78;;;3.22;;
42110;SDS011;27766;52.174;5.456;2023-03-01T16:00:41;8.48;;;3.40;;
42110;SDS011;27766;52.174;5.456;2023-03-01T16:03:25;6.97;;;3.65;;
42110;SDS011;27766;52.174;5.456;2023-03-01T16:05:53;4.47;;;3.05;;
42110;SDS011;27766;52.174;5.456;2023-03-01T16:08:21;6.13;;;3.78;;
42110;SDS011;27766;52.174;5.456;2023-03-01T16:10:48;7.97;;;3.53;;
42110;SDS011;27766;52.174;5.456;2023-03-01T16:13:17;6.25;;;3.53;;
42110;SDS011;27766;52.174;5.456;2023-03-01T16:15:45;6.13;;;3.72;;
42110;SDS011;27766;52.174;5.456;2023-03-01T16:18:12;4.75;;;3.60;;
42110;SDS011;27766;52.174;5.456;2023-03-01T16:20:39;12.30;;;4.35;;
42110;SDS011;27766;52.174;5.456;2023-03-01T16:23:07;7.00;;;4.60;;
42110;SDS011;27766;52.174;5.456;2023-03-01T16:25:36;5.45;;;4.28;;
42110;SDS011;27766;52.174;5.456;2023-03-01T16:28:04;4.88;;;3.28;;
42110;SDS011;27766;52.174;5.456;2023-03-01T16:30:38;8.48;;;4.38;;
42110;SDS011;27766;52.174;5.456;2023-03-01T16:33:06;5.38;;;3.30;;
42110;SDS011;27766;52.174;5.456;2023-03-01T16:35:55;4.85;;;3.35;;
42110;SDS011;27766;52.174;5.456;2023-03-01T16:38:23;4.00;;;3.20;;
42110;SDS011;27766;52.174;5.456;2023-03-01T16:40:50;6.43;;;3.47;;
42110;SDS011;27766;52.174;5.456;2023-03-01T16:43:19;4.13;;;3.28;;
42110;SDS011;27766;52.174;5.456;2023-03-01T16:45:46;6.90;;;3.78;;